Time;durP1;ratioP1;P1;durP2;ratioP2;P2;SDS_P1;SDS_P2;PMS_P1;PMS_P2;Temp;Humidity;BMP_temperature;BMP_pressure;BME280_temperature;BME280_humidity;BME280_pressure;Samples;Min_cycle;Max_cycle;Signal;HPM_P1;HPM_P2
2021/12/10 00:01:47;;;;;;;15.88;12.85;;;;;;;;;;4875456;29;20055;-76
2021/12/10 00:04:29;;;;;;;16.63;13.10;;;;;;;;;;4815027;29;20061;-76
2021/12/10 00:06:58;;;;;;;13.23;11.45;;;;;;;;;;4847816;29;20148;-76
2021/12/10 00:09:27;;;;;;;21.30;14.15;;;;;;;;;;4857235;29;20569;-77
2021/12/10 00:12:00;;;;;;;13.98;11.85;;;;;;;;;;4848026;29;20152;-77
2021/12/10 00:14:30;;;;;;;18.05;13.27;;;;;;;;;;4856743;29;20081;-77
2021/12/10 00:16:59;;;;;;;23.45;14.60;;;;;;;;;;4852789;29;20049;-77
2021/12/10 00:19:33;;;;;;;31.08;16.95;;;;;;;;;;4851476;29;20168;-77
2021/12/10 00:22:06;;;;;;;40.25;18.40;;;;;;;;;;4854963;29;20064;-77
2021/12/10 00:24:33;;;;;;;41.70;18.75;;;;;;;;;;4863628;29;20041;-77
2021/12/10 00:27:06;;;;;;;36.35;18.35;;;;;;;;;;4857453;29;20056;-76
2021/12/10 00:29:38;;;;;;;25.27;15.18;;;;;;;;;;4845849;29;20434;-76
2021/12/10 00:32:31;;;;;;;28.95;17.42;;;;;;;;;;4852085;29;20053;-77
2021/12/10 00:35:04;;;;;;;24.70;16.17;;;;;;;;;;4851827;29;20136;-76
2021/12/10 00:37:33;;;;;;;22.50;15.38;;;;;;;;;;4854821;29;20049;-76
2021/12/10 00:40:01;;;;;;;17.33;13.63;;;;;;;;;;4853039;29;20061;-77
2021/12/10 00:42:30;;;;;;;23.80;15.18;;;;;;;;;;4854287;29;20601;-77
2021/12/10 00:44:59;;;;;;;24.13;16.25;;;;;;;;;;4863694;29;20065;-77
2021/12/10 00:47:27;;;;;;;41.92;17.20;;;;;;;;;;4836309;29;20049;-76
2021/12/10 00:49:55;;;;;;;16.88;12.75;;;;;;;;;;4858492;29;20060;-77
2021/12/10 00:52:22;;;;;;;23.45;15.07;;;;;;;;;;4954727;23;20050;-78
2021/12/10 00:54:50;;;;;;;18.92;14.55;;;;;;;;;;4936745;29;20090;-77
2021/12/10 00:57:19;;;;;;;27.17;16.17;;;;;;;;;;4924946;28;20109;-77
2021/12/10 00:59:47;;;;;;;16.60;12.88;;;;;;;;;;4929593;29;20469;-77
2021/12/10 01:02:16;;;;;;;20.10;14.63;;;;;;;;;;4926973;29;20043;-77
2021/12/10 01:04:45;;;;;;;30.60;17.00;;;;;;;;;;4936382;29;20039;-77
2021/12/10 01:07:14;;;;;;;25.60;15.60;;;;;;;;;;4940020;29;20047;-76
2021/12/10 01:09:45;;;;;;;23.50;15.50;;;;;;;;;;4913217;29;20063;-77
2021/12/10 01:12:15;;;;;;;23.13;15.55;;;;;;;;;;4915062;29;20040;-78
2021/12/10 01:28:43;;;;;;;17.35;14.43;;;;;;;;;;4941330;28;20039;-76
2021/12/10 01:31:10;;;;;;;34.05;18.10;;;;;;;;;;4921715;29;20063;-76
2021/12/10 01:33:38;;;;;;;23.70;15.60;;;;;;;;;;4938696;29;20519;-79
2021/12/10 01:36:07;;;;;;;43.97;19.67;;;;;;;;;;4935882;29;20047;-79
2021/12/10 01:38:41;;;;;;;30.35;17.08;;;;;;;;;;4924028;29;20048;-78
2021/12/10 01:41:11;;;;;;;36.58;17.38;;;;;;;;;;4932490;29;20500;-80
2021/12/10 01:43:40;;;;;;;30.17;16.23;;;;;;;;;;4925625;29;20066;-76
2021/12/10 01:46:11;;;;;;;31.38;16.30;;;;;;;;;;4928972;29;20052;-76
2021/12/10 01:48:52;;;;;;;24.25;16.65;;;;;;;;;;4909153;29;20078;-81
2021/12/10 01:51:25;;;;;;;33.88;16.67;;;;;;;;;;4913909;29;20110;-74
2021/12/10 01:53:54;;;;;;;37.92;18.02;;;;;;;;;;4915617;29;20039;-78
2021/12/10 01:56:25;;;;;;;37.60;18.10;;;;;;;;;;4931652;29;20040;-74
2021/12/10 01:58:52;;;;;;;43.80;19.50;;;;;;;;;;4914142;29;20059;-74
2021/12/10 02:01:21;;;;;;;28.02;17.10;;;;;;;;;;4944124;29;20050;-75
2021/12/10 02:03:52;;;;;;;25.75;16.67;;;;;;;;;;4930690;29;20079;-79
2021/12/10 02:06:20;;;;;;;22.17;15.05;;;;;;;;;;4926956;29;20452;-79
2021/12/10 02:08:47;;;;;;;32.65;17.63;;;;;;;;;;4939194;29;20045;-75
2021/12/10 02:11:15;;;;;;;14.90;11.90;;;;;;;;;;4928838;29;20096;-76
2021/12/10 02:13:44;;;;;;;24.13;15.63;;;;;;;;;;4911471;29;20048;-75
2021/12/10 02:16:13;;;;;;;22.02;15.07;;;;;;;;;;4926851;29;20492;-76
2021/12/10 02:18:41;;;;;;;18.42;13.30;;;;;;;;;;4930836;28;20040;-78
2021/12/10 02:21:09;;;;;;;20.83;13.85;;;;;;;;;;4917044;29;20098;-80
2021/12/10 02:23:37;;;;;;;19.70;13.68;;;;;;;;;;4914285;29;20422;-78
2021/12/10 02:26:06;;;;;;;16.05;12.43;;;;;;;;;;4913942;29;20059;-81
2021/12/10 02:28:34;;;;;;;24.20;14.38;;;;;;;;;;4937112;28;20051;-75
2021/12/10 02:31:03;;;;;;;20.85;13.77;;;;;;;;;;4935211;29;20083;-75
2021/12/10 02:33:30;;;;;;;18.00;12.80;;;;;;;;;;4914753;29;20067;-75
2021/12/10 02:35:58;;;;;;;15.60;12.10;;;;;;;;;;4934632;29;20044;-75
2021/12/10 02:38:25;;;;;;;27.02;14.13;;;;;;;;;;4911628;29;20464;-80
2021/12/10 02:40:54;;;;;;;24.70;13.45;;;;;;;;;;4937652;29;20048;-75
2021/12/10 02:43:22;;;;;;;14.18;9.65;;;;;;;;;;4933760;29;20036;-81
2021/12/10 02:45:52;;;;;;;18.17;10.93;;;;;;;;;;4912255;29;20047;-78
2021/12/10 02:48:20;;;;;;;16.48;11.13;;;;;;;;;;4920796;28;20148;-82
2021/12/10 02:50:47;;;;;;;14.68;11.38;;;;;;;;;;4912369;29;20040;-76
2021/12/10 02:53:19;;;;;;;13.73;9.90;;;;;;;;;;4926486;29;20510;-77
2021/12/10 02:55:47;;;;;;;15.50;10.27;;;;;;;;;;4918045;29;20504;-75
2021/12/10 02:58:14;;;;;;;13.90;10.82;;;;;;;;;;4911423;29;21010;-79
2021/12/10 03:00:45;;;;;;;10.95;9.50;;;;;;;;;;4925004;29;20485;-75
2021/12/10 03:03:13;;;;;;;19.63;13.40;;;;;;;;;;4913769;29;20047;-76
2021/12/10 03:05:41;;;;;;;19.65;12.40;;;;;;;;;;4912204;29;20526;-77
2021/12/10 03:08:08;;;;;;;14.48;10.80;;;;;;;;;;4926438;29;20130;-78
2021/12/10 03:10:36;;;;;;;25.58;12.77;;;;;;;;;;4930465;29;20063;-76
2021/12/10 03:13:04;;;;;;;27.95;13.82;;;;;;;;;;4938339;29;20082;-79
2021/12/10 03:15:32;;;;;;;13.98;9.85;;;;;;;;;;4934842;29;20078;-78
2021/12/10 03:18:00;;;;;;;16.00;10.85;;;;;;;;;;4933234;29;20269;-76
2021/12/10 03:20:29;;;;;;;15.02;11.02;;;;;;;;;;4921227;29;20040;-79
2021/12/10 03:22:57;;;;;;;13.38;10.35;;;;;;;;;;4911034;29;20095;-75
2021/12/10 03:25:25;;;;;;;30.15;14.20;;;;;;;;;;4936769;29;20035;-79
2021/12/10 03:27:53;;;;;;;15.50;11.20;;;;;;;;;;4931134;29;20075;-78
2021/12/10 03:30:23;;;;;;;21.55;14.02;;;;;;;;;;4926143;29;20222;-83
2021/12/10 03:32:50;;;;;;;14.75;10.68;;;;;;;;;;4933792;29;20210;-82
2021/12/10 03:35:25;;;;;;;18.92;12.10;;;;;;;;;;4949895;29;20040;-83
2021/12/10 03:37:53;;;;;;;14.35;10.68;;;;;;;;;;4949723;28;20035;-79
2021/12/10 03:40:21;;;;;;;18.77;13.15;;;;;;;;;;4922395;29;20456;-78
2021/12/10 03:42:50;;;;;;;17.05;11.90;;;;;;;;;;4931397;29;20111;-76
2021/12/10 03:45:17;;;;;;;15.18;11.15;;;;;;;;;;4931693;29;20106;-77
2021/12/10 03:47:45;;;;;;;16.35;11.80;;;;;;;;;;4933119;29;20078;-81
2021/12/10 03:50:20;;;;;;;26.95;14.40;;;;;;;;;;4935822;29;20486;-78
2021/12/10 03:52:47;;;;;;;19.92;12.60;;;;;;;;;;4949746;29;20457;-79
2021/12/10 03:55:15;;;;;;;22.13;13.60;;;;;;;;;;4931634;29;20413;-76
2021/12/10 03:57:42;;;;;;;16.48;11.00;;;;;;;;;;4923186;29;20039;-77
2021/12/10 04:00:10;;;;;;;14.50;11.23;;;;;;;;;;4914970;29;20295;-79
2021/12/10 04:02:38;;;;;;;14.77;10.65;;;;;;;;;;4921405;29;20107;-82
2021/12/10 04:05:05;;;;;;;26.95;14.27;;;;;;;;;;4931213;29;20050;-76
2021/12/10 04:07:33;;;;;;;18.35;11.82;;;;;;;;;;4948190;28;20091;-77
2021/12/10 04:10:00;;;;;;;14.25;10.85;;;;;;;;;;4935207;29;20138;-80
2021/12/10 04:12:28;;;;;;;21.33;13.55;;;;;;;;;;4922341;29;20099;-76
2021/12/10 04:14:55;;;;;;;17.90;12.15;;;;;;;;;;4930891;29;20130;-78
2021/12/10 04:17:23;;;;;;;19.08;11.93;;;;;;;;;;4930444;29;20107;-80
2021/12/10 04:19:51;;;;;;;14.07;10.45;;;;;;;;;;4933869;29;20465;-76
2021/12/10 04:22:19;;;;;;;23.30;13.85;;;;;;;;;;4931017;29;20146;-76
2021/12/10 04:24:47;;;;;;;21.40;12.15;;;;;;;;;;4931266;29;20068;-76
2021/12/10 04:27:15;;;;;;;19.48;11.80;;;;;;;;;;4931074;29;20103;-76
2021/12/10 04:29:42;;;;;;;21.13;12.55;;;;;;;;;;4929042;29;20119;-76
2021/12/10 04:32:11;;;;;;;32.83;15.73;;;;;;;;;;4910602;29;20063;-80
2021/12/10 04:34:38;;;;;;;25.35;14.15;;;;;;;;;;4930813;29;20709;-77
2021/12/10 04:37:08;;;;;;;17.70;12.48;;;;;;;;;;4931198;29;20067;-80
2021/12/10 04:39:40;;;;;;;26.88;14.32;;;;;;;;;;4932178;29;20087;-76
2021/12/10 04:42:07;;;;;;;;;;;;;;;;;;4930850;29;20086;-77
2021/12/10 04:44:34;;;;;;;19.55;11.85;;;;;;;;;;4930723;29;19927;-83
2021/12/10 04:47:02;;;;;;;17.13;11.18;;;;;;;;;;4911106;29;20103;-79
2021/12/10 04:49:30;;;;;;;11.95;9.75;;;;;;;;;;4931133;29;20044;-80
2021/12/10 04:51:57;;;;;;;12.73;9.60;;;;;;;;;;4929585;29;20087;-77
2021/12/10 04:54:25;;;;;;;11.57;9.38;;;;;;;;;;4931426;29;20390;-77
2021/12/10 04:56:57;;;;;;;16.15;11.15;;;;;;;;;;4930090;29;20052;-80
2021/12/10 04:59:27;;;;;;;28.40;14.40;;;;;;;;;;4915803;29;20118;-79
2021/12/10 05:01:56;;;;;;;24.15;13.77;;;;;;;;;;4917575;29;20039;-78
2021/12/10 05:04:26;;;;;;;20.20;12.02;;;;;;;;;;4915492;29;20511;-75
2021/12/10 05:06:54;;;;;;;23.65;11.88;;;;;;;;;;4916231;29;20043;-75
2021/12/10 05:09:22;;;;;;;25.92;12.27;;;;;;;;;;4914094;29;20047;-79
2021/12/10 05:11:50;;;;;;;15.00;9.93;;;;;;;;;;4930404;29;20126;-76
2021/12/10 05:14:18;;;;;;;16.35;11.35;;;;;;;;;;4913780;29;20113;-75
2021/12/10 05:16:46;;;;;;;21.10;12.30;;;;;;;;;;4930630;29;20067;-75
2021/12/10 05:19:16;;;;;;;24.65;12.25;;;;;;;;;;4933370;29;20135;-74
2021/12/10 05:21:46;;;;;;;17.33;11.52;;;;;;;;;;4913610;29;20135;-75
2021/12/10 05:24:13;;;;;;;32.00;13.18;;;;;;;;;;4916355;29;20082;-79
2021/12/10 05:26:41;;;;;;;13.98;9.45;;;;;;;;;;4911822;29;20054;-80
2021/12/10 05:29:09;;;;;;;25.42;13.98;;;;;;;;;;4929978;29;20048;-81
2021/12/10 05:31:39;;;;;;;24.65;14.80;;;;;;;;;;4907906;29;20548;-75
2021/12/10 05:34:07;;;;;;;17.55;12.25;;;;;;;;;;4924454;29;20442;-76
2021/12/10 05:36:34;;;;;;;20.00;13.18;;;;;;;;;;4924794;29;20080;-76
2021/12/10 05:39:03;;;;;;;18.65;12.50;;;;;;;;;;4915989;29;20135;-79
2021/12/10 05:41:30;;;;;;;20.80;12.80;;;;;;;;;;4928334;29;20052;-75
2021/12/10 05:43:57;;;;;;;17.35;11.85;;;;;;;;;;4932762;29;20047;-77
2021/12/10 05:46:25;;;;;;;21.58;12.32;;;;;;;;;;4913706;29;20107;-78
2021/12/10 05:48:53;;;;;;;14.65;10.80;;;;;;;;;;4946965;29;20080;-82
2021/12/10 05:51:20;;;;;;;20.40;11.55;;;;;;;;;;4943978;29;20077;-79
2021/12/10 05:53:47;;;;;;;13.45;10.55;;;;;;;;;;4945594;29;20055;-81
2021/12/10 05:56:15;;;;;;;15.02;9.55;;;;;;;;;;4895908;29;20082;-77
2021/12/10 05:58:42;;;;;;;15.27;10.02;;;;;;;;;;4934649;29;20043;-75
2021/12/10 06:01:14;;;;;;;;;;;;;;;;;;4923608;29;20417;-75
2021/12/10 06:03:51;;;;;;;25.33;13.25;;;;;;;;;;4914461;29;19930;-76
2021/12/10 06:06:20;;;;;;;19.75;12.63;;;;;;;;;;4919358;29;20063;-77
2021/12/10 06:08:47;;;;;;;29.83;18.63;;;;;;;;;;4931730;29;20079;-80
2021/12/10 06:11:17;;;;;;;21.40;15.20;;;;;;;;;;4939665;28;20063;-74
2021/12/10 06:13:45;;;;;;;17.58;13.77;;;;;;;;;;4926055;29;20417;-76
2021/12/10 06:16:13;;;;;;;22.10;15.40;;;;;;;;;;4918510;29;20043;-77
2021/12/10 06:18:41;;;;;;;23.73;13.13;;;;;;;;;;4909884;29;20417;-75
2021/12/10 06:21:09;;;;;;;26.48;15.30;;;;;;;;;;4907138;29;20044;-75
2021/12/10 06:23:37;;;;;;;24.00;15.32;;;;;;;;;;4924827;29;20127;-76
2021/12/10 06:26:05;;;;;;;18.65;13.32;;;;;;;;;;4930759;29;20070;-79
2021/12/10 06:28:37;;;;;;;27.77;14.20;;;;;;;;;;4917656;29;20519;-75
2021/12/10 06:31:06;;;;;;;21.23;11.60;;;;;;;;;;4895214;29;20043;-75
2021/12/10 06:33:33;;;;;;;24.48;13.73;;;;;;;;;;4890457;29;20122;-76
2021/12/10 06:36:03;;;;;;;24.23;13.77;;;;;;;;;;4904189;29;20124;-78
2021/12/10 06:38:32;;;;;;;15.63;10.02;;;;;;;;;;4921577;29;20235;-78
2021/12/10 06:40:59;;;;;;;21.20;13.13;;;;;;;;;;4928053;29;20078;-79
2021/12/10 06:43:27;;;;;;;24.42;15.00;;;;;;;;;;4929545;29;20052;-78
2021/12/10 06:45:55;;;;;;;27.42;15.27;;;;;;;;;;4914862;29;20138;-75
2021/12/10 06:48:23;;;;;;;15.75;11.93;;;;;;;;;;4936328;29;20039;-76
2021/12/10 06:50:53;;;;;;;23.05;13.70;;;;;;;;;;4961775;23;20515;-76
2021/12/10 06:53:21;;;;;;;22.20;11.93;;;;;;;;;;4915871;29;20603;-75
2021/12/10 06:55:49;;;;;;;23.15;12.95;;;;;;;;;;4920731;29;20098;-75
2021/12/10 06:58:17;;;;;;;28.38;14.25;;;;;;;;;;4921151;29;20036;-74
2021/12/10 07:00:47;;;;;;;19.73;10.57;;;;;;;;;;4915407;29;20068;-75
2021/12/10 07:03:17;;;;;;;16.92;9.55;;;;;;;;;;4881324;29;20087;-75
2021/12/10 07:05:45;;;;;;;12.93;8.63;;;;;;;;;;4917896;29;20550;-74
2021/12/10 07:08:13;;;;;;;18.60;9.20;;;;;;;;;;4898097;29;20100;-75
2021/12/10 07:10:40;;;;;;;16.02;10.13;;;;;;;;;;4918924;29;20512;-75
2021/12/10 07:13:08;;;;;;;14.15;9.77;;;;;;;;;;4916117;29;20096;-75
2021/12/10 07:15:37;;;;;;;7.47;5.68;;;;;;;;;;4913676;29;20036;-75
2021/12/10 07:18:05;;;;;;;10.00;7.25;;;;;;;;;;4882718;29;20521;-75
2021/12/10 07:20:33;;;;;;;13.50;7.35;;;;;;;;;;4900955;29;20039;-74
2021/12/10 07:23:00;;;;;;;13.35;8.52;;;;;;;;;;4914098;29;20576;-75
2021/12/10 07:25:28;;;;;;;14.10;8.93;;;;;;;;;;4914631;29;20100;-74
2021/12/10 07:27:55;;;;;;;17.30;11.30;;;;;;;;;;4917326;29;20102;-75
2021/12/10 07:30:24;;;;;;;13.13;9.10;;;;;;;;;;4925015;29;20504;-74
2021/12/10 07:32:51;;;;;;;13.65;9.80;;;;;;;;;;4879448;29;20457;-75
2021/12/10 07:35:19;;;;;;;12.63;9.43;;;;;;;;;;4899285;29;20040;-75
2021/12/10 07:37:47;;;;;;;16.42;10.75;;;;;;;;;;4922306;29;20043;-75
2021/12/10 07:40:17;;;;;;;13.98;9.77;;;;;;;;;;4916864;29;20063;-75
2021/12/10 07:42:44;;;;;;;13.07;8.07;;;;;;;;;;4917496;29;20076;-75
2021/12/10 07:45:12;;;;;;;14.82;9.43;;;;;;;;;;4920200;29;20398;-75
2021/12/10 07:47:41;;;;;;;15.30;10.82;;;;;;;;;;4899651;29;20044;-75
2021/12/10 07:50:10;;;;;;;10.95;8.15;;;;;;;;;;4897102;29;20414;-75
2021/12/10 07:52:40;;;;;;;12.90;9.38;;;;;;;;;;4911871;29;20349;-74
2021/12/10 07:55:11;;;;;;;11.02;8.85;;;;;;;;;;4916559;29;20441;-75
2021/12/10 07:57:38;;;;;;;14.10;8.75;;;;;;;;;;4913708;29;20104;-75
2021/12/10 08:00:07;;;;;;;13.02;9.45;;;;;;;;;;4895834;29;20576;-75
2021/12/10 08:02:40;;;;;;;13.85;8.82;;;;;;;;;;4918291;29;20099;-76
2021/12/10 08:05:08;;;;;;;14.13;9.07;;;;;;;;;;4895558;29;20147;-77
2021/12/10 08:07:36;;;;;;;13.10;10.20;;;;;;;;;;4915225;29;20114;-75
2021/12/10 08:10:04;;;;;;;15.25;9.77;;;;;;;;;;4908150;29;20072;-75
2021/12/10 08:12:32;;;;;;;17.58;13.18;;;;;;;;;;4909526;29;20091;-76
2021/12/10 08:14:59;;;;;;;12.93;9.90;;;;;;;;;;4894611;29;20131;-75
2021/12/10 08:17:27;;;;;;;9.00;7.65;;;;;;;;;;4915248;29;20067;-77
2021/12/10 08:19:55;;;;;;;12.77;8.60;;;;;;;;;;4910674;29;20127;-76
2021/12/10 08:22:22;;;;;;;19.02;10.95;;;;;;;;;;4927322;29;20475;-76
2021/12/10 08:24:49;;;;;;;14.98;10.15;;;;;;;;;;4912482;29;20083;-76
2021/12/10 08:27:17;;;;;;;21.17;11.43;;;;;;;;;;4899954;29;20194;-77
2021/12/10 08:29:45;;;;;;;11.82;9.38;;;;;;;;;;4922425;29;20134;-76
2021/12/10 08:32:16;;;;;;;17.48;10.20;;;;;;;;;;4893107;29;20139;-76
2021/12/10 08:34:43;;;;;;;14.60;10.20;;;;;;;;;;4898240;29;20048;-76
2021/12/10 08:37:11;;;;;;;14.65;10.02;;;;;;;;;;4913303;29;20131;-76
2021/12/10 08:39:44;;;;;;;14.73;9.48;;;;;;;;;;4897424;29;20099;-76
2021/12/10 08:42:51;;;;;;;8.45;7.22;;;;;;;;;;4890895;29;20054;-75
2021/12/10 08:45:19;;;;;;;14.52;8.98;;;;;;;;;;4912748;29;20071;-76
2021/12/10 08:47:47;;;;;;;14.07;9.50;;;;;;;;;;4902727;29;20106;-79
2021/12/10 08:50:18;;;;;;;14.23;9.07;;;;;;;;;;4899972;29;20070;-77
2021/12/10 08:52:45;;;;;;;16.30;10.90;;;;;;;;;;4904035;29;20074;-77
2021/12/10 08:55:13;;;;;;;16.17;9.05;;;;;;;;;;4909758;29;20054;-78
2021/12/10 08:57:40;;;;;;;9.05;7.35;;;;;;;;;;4930278;29;20047;-77
2021/12/10 09:00:08;;;;;;;13.75;8.98;;;;;;;;;;4914534;29;20119;-76
2021/12/10 09:02:37;;;;;;;10.80;8.45;;;;;;;;;;4898272;29;20142;-76
2021/12/10 09:05:09;;;;;;;12.35;8.05;;;;;;;;;;4920734;29;20056;-76
2021/12/10 09:07:38;;;;;;;11.02;7.68;;;;;;;;;;4936512;29;20054;-76
2021/12/10 09:10:08;;;;;;;14.23;8.57;;;;;;;;;;4914079;29;20054;-76
2021/12/10 09:12:36;;;;;;;12.52;8.27;;;;;;;;;;4930438;29;20208;-78
2021/12/10 09:15:05;;;;;;;14.75;8.50;;;;;;;;;;4928632;29;20124;-76
2021/12/10 09:17:33;;;;;;;12.43;8.25;;;;;;;;;;4900820;29;20552;-76
2021/12/10 09:20:03;;;;;;;11.70;8.20;;;;;;;;;;4911403;29;20465;-76
2021/12/10 09:22:30;;;;;;;13.95;7.78;;;;;;;;;;4910120;29;20067;-76
2021/12/10 09:24:58;;;;;;;13.82;9.73;;;;;;;;;;4912336;29;20052;-79
2021/12/10 09:27:26;;;;;;;15.00;8.98;;;;;;;;;;4910512;29;20078;-76
2021/12/10 09:29:54;;;;;;;13.68;9.38;;;;;;;;;;4911173;29;20483;-77
2021/12/10 09:32:26;;;;;;;16.88;11.20;;;;;;;;;;4919110;29;20052;-79
2021/12/10 09:34:56;;;;;;;13.18;7.35;;;;;;;;;;4916291;29;20127;-77
2021/12/10 09:37:49;;;;;;;13.60;9.13;;;;;;;;;;4903972;29;20107;-77
2021/12/10 09:40:22;;;;;;;12.25;8.02;;;;;;;;;;4910349;29;20078;-77
2021/12/10 09:42:50;;;;;;;17.23;11.60;;;;;;;;;;4909522;29;20040;-79
2021/12/10 09:45:24;;;;;;;14.32;9.25;;;;;;;;;;4889337;29;20059;-77
2021/12/10 09:48:01;;;;;;;16.23;8.40;;;;;;;;;;4885070;29;20055;-77
2021/12/10 09:50:36;;;;;;;12.30;6.75;;;;;;;;;;4894918;29;20048;-78
2021/12/10 09:53:04;;;;;;;12.15;7.75;;;;;;;;;;4887062;29;20139;-78
2021/12/10 09:55:31;;;;;;;11.95;7.28;;;;;;;;;;4894033;29;20080;-77
2021/12/10 09:57:58;;;;;;;12.38;7.90;;;;;;;;;;4907353;29;20429;-77
2021/12/10 10:00:32;;;;;;;9.40;6.30;;;;;;;;;;4908859;29;20132;-77
2021/12/10 10:03:09;;;;;;;12.52;8.18;;;;;;;;;;4895622;29;20502;-76
2021/12/10 10:05:38;;;;;;;13.65;7.55;;;;;;;;;;4892616;29;20135;-78
2021/12/10 10:08:07;;;;;;;8.35;6.68;;;;;;;;;;4895585;29;20143;-77
2021/12/10 10:10:35;;;;;;;11.02;6.65;;;;;;;;;;4908465;29;20134;-77
2021/12/10 10:13:05;;;;;;;9.23;6.90;;;;;;;;;;4911181;29;20072;-78
2021/12/10 10:15:34;;;;;;;11.80;7.90;;;;;;;;;;4913574;29;20063;-77
2021/12/10 10:18:07;;;;;;;13.05;6.95;;;;;;;;;;4917760;29;20628;-78
2021/12/10 10:20:43;;;;;;;12.98;7.57;;;;;;;;;;4914482;29;20055;-76
2021/12/10 10:23:10;;;;;;;11.43;7.10;;;;;;;;;;4914958;29;20050;-76
2021/12/10 10:25:40;;;;;;;15.70;7.40;;;;;;;;;;4915144;29;20047;-77
2021/12/10 10:28:11;;;;;;;11.52;8.25;;;;;;;;;;4897031;29;20142;-78
2021/12/10 10:30:42;;;;;;;9.57;7.10;;;;;;;;;;4916919;29;20056;-76
2021/12/10 10:33:11;;;;;;;11.43;7.15;;;;;;;;;;4914254;29;20071;-76
2021/12/10 10:35:41;;;;;;;12.38;7.47;;;;;;;;;;4898328;29;20082;-77
2021/12/10 10:38:10;;;;;;;10.75;7.68;;;;;;;;;;4915569;29;20147;-77
2021/12/10 10:40:40;;;;;;;10.43;7.53;;;;;;;;;;4914353;29;20047;-77
2021/12/10 10:43:07;;;;;;;12.18;8.65;;;;;;;;;;4897770;29;20044;-78
2021/12/10 10:45:36;;;;;;;11.05;7.28;;;;;;;;;;4916524;29;20040;-78
2021/12/10 10:48:05;;;;;;;11.18;7.18;;;;;;;;;;4892374;29;20140;-78
2021/12/10 10:50:35;;;;;;;11.77;8.30;;;;;;;;;;4908734;29;20330;-79
2021/12/10 10:53:08;;;;;;;13.40;9.30;;;;;;;;;;4913748;29;20508;-77
2021/12/10 10:55:39;;;;;;;15.88;9.05;;;;;;;;;;4919210;29;20061;-78
2021/12/10 10:58:06;;;;;;;14.37;7.83;;;;;;;;;;4897373;29;20127;-77
2021/12/10 11:01:08;;;;;;;8.98;6.60;;;;;;;;;;4913760;29;20079;-79
2021/12/10 11:04:00;;;;;;;11.65;6.35;;;;;;;;;;4912664;29;20052;-77
2021/12/10 11:06:36;;;;;;;11.50;7.13;;;;;;;;;;4897652;29;20056;-78
2021/12/10 11:09:15;;;;;;;14.25;8.65;;;;;;;;;;4914559;29;20084;-77
2021/12/10 11:11:45;;;;;;;17.10;8.65;;;;;;;;;;4917443;29;20497;-79
2021/12/10 11:14:22;;;;;;;17.83;9.32;;;;;;;;;;4914290;29;20051;-77
2021/12/10 11:16:54;;;;;;;12.18;7.55;;;;;;;;;;4914500;29;20102;-77
2021/12/10 11:19:49;;;;;;;10.63;6.38;;;;;;;;;;4906658;29;20095;-77
2021/12/10 11:22:16;;;;;;;11.50;7.72;;;;;;;;;;4911196;29;20050;-77
2021/12/10 11:24:51;;;;;;;9.35;6.20;;;;;;;;;;4900528;29;20058;-77
2021/12/10 11:27:19;;;;;;;10.05;6.47;;;;;;;;;;4910644;29;20044;-77
2021/12/10 11:29:56;;;;;;;9.73;5.53;;;;;;;;;;4910608;29;20253;-77
2021/12/10 11:32:27;;;;;;;6.60;4.78;;;;;;;;;;4914893;29;20505;-79
2021/12/10 11:34:56;;;;;;;9.07;5.40;;;;;;;;;;4917979;29;20127;-77
2021/12/10 11:37:42;;;;;;;13.88;7.18;;;;;;;;;;4915698;29;20040;-77
2021/12/10 11:40:23;;;;;;;9.15;5.15;;;;;;;;;;4916534;29;20046;-80
2021/12/10 11:42:57;;;;;;;7.20;5.03;;;;;;;;;;4912811;29;20572;-77
2021/12/10 11:45:41;;;;;;;8.75;4.40;;;;;;;;;;4913271;29;20307;-79
2021/12/10 11:48:12;;;;;;;8.43;4.03;;;;;;;;;;4912851;29;20048;-78
2021/12/10 11:50:44;;;;;;;4.97;3.13;;;;;;;;;;4912272;29;20163;-77
2021/12/10 11:53:13;;;;;;;9.68;4.05;;;;;;;;;;4898471;29;20130;-77
2021/12/10 11:55:55;;;;;;;5.68;2.90;;;;;;;;;;4914084;29;20497;-76
2021/12/10 11:58:22;;;;;;;6.53;3.92;;;;;;;;;;4897238;29;20099;-77
2021/12/10 12:00:50;;;;;;;6.03;3.20;;;;;;;;;;4915006;29;20504;-77
2021/12/10 12:03:20;;;;;;;7.40;3.88;;;;;;;;;;4913972;29;20055;-78
2021/12/10 12:05:49;;;;;;;10.02;3.30;;;;;;;;;;4910588;29;20405;-77
2021/12/10 12:08:18;;;;;;;6.30;3.50;;;;;;;;;;4913212;29;20048;-76
2021/12/10 12:10:47;;;;;;;7.10;2.97;;;;;;;;;;4891463;29;20052;-77
2021/12/10 12:15:46;;;;;;;7.85;3.00;;;;;;;;;;4901757;29;20580;-79
2021/12/10 12:18:16;;;;;;;4.30;2.67;;;;;;;;;;4911692;29;20047;-77
2021/12/10 12:20:48;;;;;;;5.10;3.15;;;;;;;;;;4905747;29;20051;-77
2021/12/10 12:26:16;;;;;;;4.10;2.70;;;;;;;;;;4895894;29;20067;-77
2021/12/10 12:29:08;;;;;;;13.55;3.25;;;;;;;;;;4910981;29;20051;-79
2021/12/10 12:31:43;;;;;;;4.55;2.50;;;;;;;;;;4912572;29;20055;-77
2021/12/10 12:34:15;;;;;;;4.13;2.80;;;;;;;;;;4883568;29;20040;-76
2021/12/10 12:37:09;;;;;;;4.43;2.88;;;;;;;;;;4895952;29;20056;-77
2021/12/10 12:39:58;;;;;;;3.13;2.20;;;;;;;;;;4890021;29;20082;-77
2021/12/10 12:42:25;;;;;;;3.58;2.63;;;;;;;;;;4903799;29;20095;-77
2021/12/10 12:45:19;;;;;;;5.75;2.80;;;;;;;;;;4910994;29;20348;-77
2021/12/10 12:48:10;;;;;;;4.30;2.55;;;;;;;;;;4907104;29;20063;-79
2021/12/10 12:50:45;;;;;;;6.82;3.08;;;;;;;;;;4910814;29;20107;-78
2021/12/10 12:53:15;;;;;;;6.38;3.47;;;;;;;;;;4943693;23;20133;-77
2021/12/10 12:55:59;;;;;;;3.83;3.10;;;;;;;;;;4929736;29;20484;-75
2021/12/10 12:58:54;;;;;;;3.92;2.88;;;;;;;;;;4914690;29;20535;-77
2021/12/10 13:01:30;;;;;;;10.27;6.03;;;;;;;;;;4909847;29;20044;-78
2021/12/10 13:04:00;;;;;;;4.70;4.15;;;;;;;;;;4879204;29;20143;-75
2021/12/10 13:06:55;;;;;;;7.30;4.22;;;;;;;;;;4892435;29;20143;-76
2021/12/10 13:09:36;;;;;;;14.25;7.82;;;;;;;;;;4911022;29;20143;-76
2021/12/10 13:12:09;;;;;;;13.60;7.97;;;;;;;;;;4913025;29;20036;-79
2021/12/10 13:14:51;;;;;;;13.07;7.65;;;;;;;;;;4894015;29;20048;-77
2021/12/10 13:17:35;;;;;;;42.63;17.92;;;;;;;;;;4908326;29;20048;-75
2021/12/10 13:20:23;;;;;;;29.75;13.63;;;;;;;;;;4904117;29;20176;-79
2021/12/10 13:22:55;;;;;;;26.48;13.23;;;;;;;;;;4908589;29;20036;-78
2021/12/10 13:25:25;;;;;;;26.52;12.40;;;;;;;;;;4911915;29;20040;-77
2021/12/10 13:27:53;;;;;;;22.40;11.73;;;;;;;;;;4907013;29;20059;-76
2021/12/10 13:30:28;;;;;;;12.23;9.25;;;;;;;;;;4908361;29;20130;-75
2021/12/10 13:32:59;;;;;;;13.38;9.65;;;;;;;;;;4913972;29;20048;-76
2021/12/10 13:35:29;;;;;;;12.55;9.73;;;;;;;;;;4923114;29;20040;-76
2021/12/10 13:37:59;;;;;;;9.27;8.23;;;;;;;;;;4914342;29;20044;-74
2021/12/10 13:40:29;;;;;;;14.52;8.35;;;;;;;;;;4916519;29;20051;-74
2021/12/10 13:42:56;;;;;;;10.90;8.18;;;;;;;;;;4906891;29;20055;-74
2021/12/10 13:45:24;;;;;;;9.40;7.22;;;;;;;;;;4908382;29;20047;-77
2021/12/10 13:48:01;;;;;;;10.45;6.95;;;;;;;;;;4913314;29;20083;-75
2021/12/10 13:50:32;;;;;;;11.60;7.65;;;;;;;;;;4903895;29;20044;-77
2021/12/10 13:53:03;;;;;;;8.98;7.20;;;;;;;;;;4907143;29;20515;-75
2021/12/10 13:55:34;;;;;;;11.65;9.02;;;;;;;;;;4891324;29;20082;-74
2021/12/10 13:58:12;;;;;;;10.15;7.22;;;;;;;;;;4891190;29;20416;-75
2021/12/10 14:00:46;;;;;;;6.10;4.28;;;;;;;;;;4906194;29;20357;-74
2021/12/10 14:03:15;;;;;;;5.43;4.00;;;;;;;;;;4906651;29;20036;-78
2021/12/10 14:05:43;;;;;;;9.32;4.50;;;;;;;;;;4909254;29;20040;-75
2021/12/10 14:08:13;;;;;;;5.78;4.03;;;;;;;;;;4908497;29;20062;-77
2021/12/10 14:10:42;;;;;;;11.80;6.80;;;;;;;;;;4904269;29;20052;-76
2021/12/10 14:13:24;;;;;;;15.48;9.20;;;;;;;;;;4879182;29;20062;-75
2021/12/10 14:16:01;;;;;;;11.27;7.20;;;;;;;;;;4914340;29;20143;-75
2021/12/10 14:18:58;;;;;;;17.15;9.45;;;;;;;;;;4906894;29;20171;-75
2021/12/10 14:21:55;;;;;;;17.20;9.15;;;;;;;;;;4894571;29;20032;-75
2021/12/10 14:24:55;;;;;;;15.77;8.25;;;;;;;;;;4892354;29;20060;-79
2021/12/10 14:28:12;;;;;;;15.02;7.85;;;;;;;;;;4891653;29;20151;-75
2021/12/10 14:30:59;;;;;;;13.60;8.05;;;;;;;;;;4910036;29;20032;-75
2021/12/10 14:33:27;;;;;;;14.23;10.55;;;;;;;;;;4887513;29;20428;-76
2021/12/10 14:35:57;;;;;;;14.63;11.35;;;;;;;;;;4902834;29;20381;-77
2021/12/10 14:38:37;;;;;;;13.18;10.18;;;;;;;;;;4896442;29;20079;-75
2021/12/10 14:41:56;;;;;;;16.05;9.57;;;;;;;;;;4908969;29;20445;-78
2021/12/10 14:44:46;;;;;;;12.02;9.27;;;;;;;;;;4847324;29;20481;-77
2021/12/10 14:47:20;;;;;;;16.80;12.20;;;;;;;;;;4854296;29;20568;-75
2021/12/10 14:50:09;;;;;;;20.70;12.77;;;;;;;;;;4872138;29;20067;-75
2021/12/10 14:52:56;;;;;;;22.08;13.00;;;;;;;;;;4869563;29;20140;-74
2021/12/10 14:55:44;;;;;;;18.65;12.25;;;;;;;;;;4866874;29;20045;-77
2021/12/10 14:58:32;;;;;;;18.10;13.23;;;;;;;;;;4867727;29;20354;-80
2021/12/10 15:01:19;;;;;;;16.08;10.30;;;;;;;;;;4844054;29;20052;-74
2021/12/10 15:04:18;;;;;;;12.02;8.27;;;;;;;;;;4858020;29;20045;-75
2021/12/10 15:07:11;;;;;;;12.35;8.82;;;;;;;;;;4861943;29;20072;-75
2021/12/10 15:09:58;;;;;;;;;;;;;;;;;;4862035;29;20132;-76
2021/12/10 15:12:50;;;;;;;16.02;10.52;;;;;;;;;;4882213;29;19962;-74